Terminal Aerodrome Forecast
Issued by NWS

Home | Current Version | Previous Version | Text Only | Print | Product List | Glossary On
Versions: 1 2 3 4 5 6 7 8 9 10 11 12 13 14 15 16 17
000
FTUS45 KVEF 262300
TAFHND
TAF
KHND 262321Z 2700/2724 16005KT P6SM SCT080 BKN150
     FM270100 16005KT P6SM VCSH SCT050 OVC080
     FM270200 18005KT P6SM -RA BKN050 OVC080
     FM270600 17005KT P6SM -SHRA BKN050 BKN080
     FM271000 17005KT P6SM VCSH SCT050 BKN080
     FM271500 19006KT P6SM FEW050 BKN080=

USA.gov is the U.S. government's official web portal to all federal, state and local government web resources and services.